»·PEaware :: N172RB KOAR-KSNS

N172RB :: KOAR-KSNS

FLIGHT INFORMATION

Flight Status: Arrived
Operator: Privately registered:
United States
More flights under this callsign
Pilot: Mehr M. (15101)
Aircraft: CESSNA 206 STATIONAIR
(C206)
More flights by this aircraft type
Origin: KOAR Marina
United States
Destination: KSNS Salinas Mun
United States
More flights between these airports :: More routes between these airports
Route:
File this flight plan on PilotEdge
Remarks: NO SID -NO STAR ODP R11 ILS R31
Altitude:
(Current/Filed)
6,000ft
Speed:
(Current/Filed)
120kts
Departed: 26-Mar-19 07:52 PM
Arrived: 26-Mar-19 08:27 PM
Distance/Time
Traveled:
7nm/0:35
Distance/Time
To Go:
Arrived

Flight Plot

Page will automatically refresh every two minutes.

Flight plan parsing failed; only flown route is shown


Map Options




Map Legend


Flown Route
Filed Route
Departure Airport
Arrival Airport
Navaid (VOR, NDB)
Fix

Horizontal Profiles

Position Reports

Time Latitude Longitude Heading Altitude Ground
Speed
26-Mar-19 19:35 36.681486 -121.765869 213 141ft 0kts
26-Mar-19 19:36 36.681486 -121.765869 213 141ft 0kts
26-Mar-19 19:37 36.681486 -121.765869 213 141ft 0kts
26-Mar-19 19:38 36.681486 -121.765869 213 141ft 0kts
26-Mar-19 19:39 36.681486 -121.765869 213 141ft 0kts
26-Mar-19 19:40 36.681486 -121.765869 213 141ft 0kts
26-Mar-19 19:41 36.681486 -121.765869 213 141ft 0kts
26-Mar-19 19:42 36.681486 -121.765869 213 141ft 0kts
26-Mar-19 19:43 36.681486 -121.765869 213 141ft 0kts
26-Mar-19 19:44 36.681486 -121.765869 213 141ft 0kts
26-Mar-19 19:45 36.681486 -121.765869 213 141ft 0kts
26-Mar-19 19:46 36.681342 -121.765989 213 141ft 0kts
26-Mar-19 19:47 36.682269 -121.766261 303 141ft 4kts
26-Mar-19 19:48 36.683411 -121.767675 75 141ft 0kts
26-Mar-19 19:49 36.683412 -121.767669 74 141ft 0kts
26-Mar-19 19:50 36.683412 -121.767669 73 141ft 0kts
26-Mar-19 19:51 36.683477 -121.767394 75 141ft 3kts
26-Mar-19 19:52 36.682446 -121.763413 122 141ft 78kts
26-Mar-19 19:53 36.669642 -121.737519 112 1178ft 82kts
26-Mar-19 19:53 36.668699 -121.717384 82 1608ft 90kts
26-Mar-19 19:55 36.664332 -121.679955 98 2453ft 95kts
26-Mar-19 19:56 36.664091 -121.646636 82 3207ft 96kts
26-Mar-19 19:56 36.664557 -121.618749 91 3817ft 98kts
26-Mar-19 19:57 36.669748 -121.586964 22 4493ft 104kts
26-Mar-19 19:59 36.689143 -121.612130 276 5241ft 97kts
26-Mar-19 19:59 36.685425 -121.639794 216 5387ft 109kts
26-Mar-19 20:00 36.667660 -121.622381 93 5759ft 100kts
26-Mar-19 20:01 36.656364 -121.590952 152 5966ft 109kts
26-Mar-19 20:02 36.630394 -121.573468 148 6035ft 119kts
26-Mar-19 20:03 36.601238 -121.552722 150 5902ft 119kts
26-Mar-19 20:04 36.572433 -121.534827 153 6004ft 104kts
26-Mar-19 20:05 36.547415 -121.513491 143 6016ft 110kts
26-Mar-19 20:06 36.520669 -121.494370 154 6063ft 110kts
26-Mar-19 20:07 36.493014 -121.474621 148 5978ft 117kts
26-Mar-19 20:08 36.465369 -121.453279 150 5932ft 117kts
26-Mar-19 20:09 36.449073 -121.422694 96 5949ft 114kts
26-Mar-19 20:10 36.446150 -121.383819 94 5987ft 111kts
26-Mar-19 20:11 36.427928 -121.379067 270 5962ft 109kts
26-Mar-19 20:12 36.434283 -121.414891 270 6076ft 106kts
26-Mar-19 20:13 36.439526 -121.427301 325 5990ft 89kts
26-Mar-19 20:14 36.457357 -121.445953 316 5620ft 90kts
26-Mar-19 20:15 36.478046 -121.465832 326 5140ft 106kts
26-Mar-19 20:16 36.500279 -121.482923 326 4291ft 97kts
26-Mar-19 20:17 36.521532 -121.499412 330 3342ft 86kts
26-Mar-19 20:18 36.541677 -121.512902 329 2768ft 82kts
26-Mar-19 20:19 36.555798 -121.522619 329 2477ft 79kts
26-Mar-19 20:20 36.574305 -121.537261 325 2044ft 80kts
26-Mar-19 20:21 36.593008 -121.551298 329 1627ft 79kts
26-Mar-19 20:22 36.599752 -121.556446 326 1474ft 79kts
26-Mar-19 20:23 36.618197 -121.570997 324 1040ft 79kts
26-Mar-19 20:24 36.636348 -121.585621 324 604ft 80kts
26-Mar-19 20:25 36.652705 -121.597883 329 276ft 70kts
26-Mar-19 20:26 36.662917 -121.607029 287 88ft 22kts
26-Mar-19 20:27 36.665988 -121.610819 212 88ft 0kts

Navigation Log

Ident Type
Flight plan parsing failed, navigation log unavailable